RYR13GH LIME-LEVC
Flight info
| Callsign | RYR13GH |
|---|---|
| Flight time | 1h 43m |
| Altitude | 37000 |
| Route | VOG DCT KEMMI DCT GEKBA DCT VAMTU DCT KOLON DCT GANGU DCT PADKO DCT DIVKO DCT NILDU DCT NENDA DCT BCN DCT RODRA DCT PEXOT DCT EBROX DCT LOTOS DCT TORDU M985 SOPET |
| Aircraft | B738/M-SDE3FGILRWY/SB1 |
Departure
| Time | 2026-05-04 17:49 |
|---|---|
| Airport | Il Caravaggio International Airport (LIME) |
Arrival
| Time | 2026-05-04 19:32 |
|---|---|
| Airport | Valencia Airport (LEVC) |
| Time | Latitude | Longitude | Altitude | Speed | Heading |
|---|---|---|---|---|---|
| 2026-05-04 17:11 | 45.66729 | 9.69556 | 786 ft | 0 kts | 195° |
| 2026-05-04 17:36 | 45.66740 | 9.69560 | 786 ft | 4 kts | 195° |
| 2026-05-04 17:36 | 45.66766 | 9.69569 | 786 ft | 4 kts | 195° |
| 2026-05-04 17:37 | 45.66783 | 9.69575 | 786 ft | 3 kts | 195° |
| 2026-05-04 17:37 | 45.66805 | 9.69580 | 786 ft | 4 kts | 162° |
| 2026-05-04 17:37 | 45.66823 | 9.69560 | 786 ft | 4 kts | 114° |
| 2026-05-04 17:37 | 45.66829 | 9.69538 | 786 ft | 0 kts | 105° |
| 2026-05-04 17:40 | 45.66828 | 9.69542 | 786 ft | 2 kts | 105° |
| 2026-05-04 17:40 | 45.66818 | 9.69596 | 786 ft | 9 kts | 105° |
| 2026-05-04 17:40 | 45.66798 | 9.69704 | 786 ft | 14 kts | 105° |
| 2026-05-04 17:40 | 45.66770 | 9.69854 | 786 ft | 18 kts | 105° |
| 2026-05-04 17:41 | 45.66733 | 9.70049 | 786 ft | 22 kts | 105° |
| 2026-05-04 17:41 | 45.66693 | 9.70259 | 786 ft | 22 kts | 104° |
| 2026-05-04 17:41 | 45.66656 | 9.70469 | 786 ft | 21 kts | 104° |
| 2026-05-04 17:41 | 45.66619 | 9.70672 | 786 ft | 21 kts | 104° |
| 2026-05-04 17:42 | 45.66582 | 9.70869 | 786 ft | 20 kts | 105° |
| 2026-05-04 17:42 | 45.66546 | 9.71060 | 786 ft | 20 kts | 106° |
| 2026-05-04 17:42 | 45.66498 | 9.71239 | 786 ft | 19 kts | 107° |
| 2026-05-04 17:42 | 45.66464 | 9.71417 | 786 ft | 18 kts | 105° |
| 2026-05-04 17:43 | 45.66440 | 9.71591 | 786 ft | 18 kts | 82° |
| 2026-05-04 17:43 | 45.66468 | 9.71759 | 786 ft | 17 kts | 78° |
| 2026-05-04 17:43 | 45.66461 | 9.71923 | 786 ft | 16 kts | 104° |
| 2026-05-04 17:43 | 45.66432 | 9.72079 | 786 ft | 16 kts | 104° |
| 2026-05-04 17:44 | 45.66402 | 9.72245 | 786 ft | 18 kts | 104° |
| 2026-05-04 17:44 | 45.66378 | 9.72376 | 786 ft | 3 kts | 104° |
| 2026-05-04 17:44 | 45.66377 | 9.72385 | 786 ft | 0 kts | 104° |
| 2026-05-04 17:47 | 45.66376 | 9.72386 | 786 ft | 1 kts | 104° |
| 2026-05-04 17:47 | 45.66372 | 9.72423 | 786 ft | 7 kts | 92° |
| 2026-05-04 17:47 | 45.66396 | 9.72508 | 786 ft | 11 kts | 30° |
| 2026-05-04 17:47 | 45.66450 | 9.72491 | 786 ft | 8 kts | 290° |
| 2026-05-04 17:48 | 45.66463 | 9.72423 | 786 ft | 7 kts | 285° |
| 2026-05-04 17:48 | 45.66488 | 9.72286 | 786 ft | 37 kts | 285° |
| 2026-05-04 17:48 | 45.66560 | 9.71900 | 786 ft | 84 kts | 284° |
| 2026-05-04 17:48 | 45.66858 | 9.70290 | 809 ft | 160 kts | 285° |
| 2026-05-04 17:49 | 45.67142 | 9.68728 | 1458 ft | 160 kts | 284° |
| 2026-05-04 17:49 | 45.67214 | 9.67129 | 2163 ft | 167 kts | 252° |
| 2026-05-04 17:49 | 45.66480 | 9.65766 | 2691 ft | 188 kts | 224° |
| 2026-05-04 17:49 | 45.65449 | 9.64407 | 2950 ft | 214 kts | 226° |
| 2026-05-04 17:50 | 45.64332 | 9.62838 | 3217 ft | 234 kts | 226° |
| 2026-05-04 17:50 | 45.63165 | 9.61161 | 3772 ft | 242 kts | 226° |
| 2026-05-04 17:50 | 45.61970 | 9.59424 | 4480 ft | 246 kts | 225° |
| 2026-05-04 17:50 | 45.60767 | 9.57668 | 5428 ft | 248 kts | 224° |
| 2026-05-04 17:51 | 45.59561 | 9.55904 | 6237 ft | 249 kts | 224° |
| 2026-05-04 17:51 | 45.58340 | 9.54147 | 7026 ft | 250 kts | 223° |
| 2026-05-04 17:51 | 45.57107 | 9.52388 | 7783 ft | 251 kts | 223° |
| 2026-05-04 17:51 | 45.55883 | 9.50643 | 8675 ft | 248 kts | 223° |
| 2026-05-04 17:52 | 45.54630 | 9.48840 | 9069 ft | 266 kts | 223° |
| 2026-05-04 17:52 | 45.53302 | 9.46918 | 9643 ft | 276 kts | 223° |
| 2026-05-04 17:52 | 45.51950 | 9.44959 | 10375 ft | 278 kts | 223° |
| 2026-05-04 17:52 | 45.50549 | 9.42936 | 10660 ft | 299 kts | 223° |
| 2026-05-04 17:53 | 45.49054 | 9.40781 | 10836 ft | 320 kts | 223° |
| 2026-05-04 17:53 | 45.47280 | 9.38680 | 11160 ft | 333 kts | 211° |
| 2026-05-04 17:53 | 45.45276 | 9.36988 | 11673 ft | 337 kts | 209° |
| 2026-05-04 17:53 | 45.43226 | 9.35339 | 12391 ft | 340 kts | 209° |
| 2026-05-04 17:54 | 45.41159 | 9.33680 | 13144 ft | 342 kts | 210° |
| 2026-05-04 17:54 | 45.39089 | 9.32006 | 13945 ft | 344 kts | 211° |
| 2026-05-04 17:54 | 45.36995 | 9.30299 | 14548 ft | 349 kts | 211° |
| 2026-05-04 17:54 | 45.34881 | 9.28562 | 15197 ft | 353 kts | 211° |
| 2026-05-04 17:55 | 45.32775 | 9.26828 | 15881 ft | 356 kts | 211° |
| 2026-05-04 17:55 | 45.30622 | 9.25050 | 16547 ft | 360 kts | 211° |
| 2026-05-04 17:55 | 45.28451 | 9.23256 | 17201 ft | 364 kts | 211° |
| 2026-05-04 17:55 | 45.26253 | 9.21440 | 17855 ft | 368 kts | 211° |
| 2026-05-04 17:56 | 45.24034 | 9.19607 | 18477 ft | 371 kts | 211° |
| 2026-05-04 17:56 | 45.21787 | 9.17753 | 19037 ft | 375 kts | 211° |
| 2026-05-04 17:56 | 45.19208 | 9.15627 | 19687 ft | 378 kts | 211° |
| 2026-05-04 17:56 | 45.17243 | 9.14009 | 20195 ft | 380 kts | 211° |
| 2026-05-04 17:57 | 45.14948 | 9.12122 | 20710 ft | 383 kts | 211° |
| 2026-05-04 17:57 | 45.12629 | 9.10217 | 21226 ft | 387 kts | 211° |
| 2026-05-04 17:57 | 45.10292 | 9.08296 | 21760 ft | 390 kts | 211° |
| 2026-05-04 17:57 | 45.07936 | 9.06362 | 22282 ft | 393 kts | 211° |
| 2026-05-04 17:58 | 45.05564 | 9.04417 | 22788 ft | 396 kts | 211° |
| 2026-05-04 17:58 | 45.03164 | 9.02451 | 23292 ft | 400 kts | 211° |
| 2026-05-04 17:58 | 45.00755 | 9.00478 | 23732 ft | 403 kts | 210° |
| 2026-05-04 17:58 | 44.98317 | 8.98483 | 24125 ft | 406 kts | 210° |
| 2026-05-04 17:59 | 44.95871 | 8.96482 | 24583 ft | 407 kts | 211° |
| 2026-05-04 17:59 | 44.93420 | 8.94452 | 25042 ft | 409 kts | 211° |
| 2026-05-04 17:59 | 44.88509 | 8.90351 | 25888 ft | 412 kts | 211° |
| 2026-05-04 18:00 | 44.86040 | 8.88291 | 26279 ft | 414 kts | 211° |
| 2026-05-04 18:00 | 44.83553 | 8.86222 | 26668 ft | 416 kts | 212° |
| 2026-05-04 18:00 | 44.81058 | 8.84150 | 27143 ft | 416 kts | 212° |
| 2026-05-04 18:00 | 44.78718 | 8.81858 | 27532 ft | 416 kts | 221° |
| 2026-05-04 18:01 | 44.76591 | 8.79017 | 27912 ft | 417 kts | 228° |
| 2026-05-04 18:01 | 44.74798 | 8.75811 | 28260 ft | 418 kts | 236° |
| 2026-05-04 18:01 | 44.73174 | 8.72421 | 28644 ft | 420 kts | 236° |
| 2026-05-04 18:02 | 44.69915 | 8.65549 | 29310 ft | 424 kts | 236° |
| 2026-05-04 18:02 | 44.68273 | 8.62109 | 29688 ft | 424 kts | 236° |
| 2026-05-04 18:02 | 44.66627 | 8.58677 | 30200 ft | 421 kts | 236° |
| 2026-05-04 18:02 | 44.65011 | 8.55320 | 30968 ft | 410 kts | 237° |
| 2026-05-04 18:03 | 44.63435 | 8.52066 | 31437 ft | 407 kts | 236° |
| 2026-05-04 18:03 | 44.61840 | 8.48782 | 31683 ft | 409 kts | 236° |
| 2026-05-04 18:03 | 44.60232 | 8.45476 | 31959 ft | 410 kts | 236° |
| 2026-05-04 18:03 | 44.58625 | 8.42174 | 32350 ft | 409 kts | 237° |
| 2026-05-04 18:04 | 44.57030 | 8.38899 | 32772 ft | 406 kts | 237° |
| 2026-05-04 18:04 | 44.55437 | 8.35632 | 33196 ft | 404 kts | 237° |
| 2026-05-04 18:04 | 44.52276 | 8.29160 | 33955 ft | 401 kts | 237° |
| 2026-05-04 18:05 | 44.50702 | 8.25942 | 34289 ft | 399 kts | 237° |
| 2026-05-04 18:05 | 44.49136 | 8.22742 | 34536 ft | 399 kts | 237° |
| 2026-05-04 18:05 | 44.47563 | 8.19533 | 34775 ft | 400 kts | 237° |
| 2026-05-04 18:05 | 44.45988 | 8.16323 | 35029 ft | 400 kts | 237° |
| 2026-05-04 18:06 | 44.42849 | 8.09939 | 35612 ft | 397 kts | 236° |
| 2026-05-04 18:06 | 44.41281 | 8.06753 | 35855 ft | 397 kts | 236° |
| 2026-05-04 18:06 | 44.39713 | 8.03573 | 36075 ft | 398 kts | 236° |
| 2026-05-04 18:07 | 44.38144 | 8.00393 | 36310 ft | 397 kts | 236° |
| 2026-05-04 18:07 | 44.36575 | 7.97215 | 36590 ft | 396 kts | 236° |
| 2026-05-04 18:07 | 44.35011 | 7.94053 | 36818 ft | 396 kts | 236° |
| 2026-05-04 18:07 | 44.33440 | 7.90878 | 36955 ft | 397 kts | 236° |
| 2026-05-04 18:08 | 44.31877 | 7.87722 | 37111 ft | 394 kts | 236° |
| 2026-05-04 18:08 | 44.30313 | 7.84569 | 37095 ft | 395 kts | 236° |
| 2026-05-04 18:08 | 44.27115 | 7.78307 | 37078 ft | 397 kts | 231° |
| 2026-05-04 18:09 | 44.18918 | 7.67857 | 37117 ft | 401 kts | 224° |
| 2026-05-04 18:10 | 44.14751 | 7.62672 | 37081 ft | 401 kts | 226° |
| 2026-05-04 18:10 | 44.11020 | 7.56955 | 37106 ft | 399 kts | 231° |
| 2026-05-04 18:11 | 44.07418 | 7.51094 | 37102 ft | 398 kts | 231° |
| 2026-05-04 18:11 | 44.03808 | 7.45274 | 37081 ft | 397 kts | 230° |
| 2026-05-04 18:12 | 44.00191 | 7.39498 | 37075 ft | 396 kts | 230° |
| 2026-05-04 18:12 | 43.96581 | 7.33761 | 37060 ft | 394 kts | 231° |
| 2026-05-04 18:13 | 43.92983 | 7.28052 | 37059 ft | 392 kts | 230° |
| 2026-05-04 18:14 | 43.87620 | 7.19569 | 37063 ft | 387 kts | 231° |
| 2026-05-04 18:14 | 43.84069 | 7.13963 | 37061 ft | 387 kts | 230° |
| 2026-05-04 18:15 | 43.76976 | 7.02795 | 37046 ft | 386 kts | 230° |
| 2026-05-04 18:16 | 43.73450 | 6.97175 | 37042 ft | 387 kts | 234° |
| 2026-05-04 18:16 | 43.70799 | 6.90743 | 37060 ft | 386 kts | 248° |
| 2026-05-04 18:17 | 43.67797 | 6.80413 | 37058 ft | 390 kts | 248° |
| 2026-05-04 18:18 | 43.64730 | 6.69976 | 37064 ft | 391 kts | 247° |
| 2026-05-04 18:18 | 43.62671 | 6.63017 | 37046 ft | 393 kts | 247° |
| 2026-05-04 18:19 | 43.59558 | 6.52585 | 37045 ft | 392 kts | 247° |
| 2026-05-04 18:19 | 43.57485 | 6.45646 | 37052 ft | 391 kts | 247° |
| 2026-05-04 18:20 | 43.55410 | 6.38710 | 37028 ft | 391 kts | 246° |
| 2026-05-04 18:20 | 43.53336 | 6.31806 | 37024 ft | 390 kts | 246° |
| 2026-05-04 18:21 | 43.51259 | 6.24906 | 37028 ft | 389 kts | 246° |
| 2026-05-04 18:21 | 43.49186 | 6.18036 | 37018 ft | 388 kts | 246° |
| 2026-05-04 18:22 | 43.47463 | 6.12339 | 37023 ft | 387 kts | 246° |
| 2026-05-04 18:22 | 43.45387 | 6.05496 | 37028 ft | 387 kts | 246° |
| 2026-05-04 18:23 | 43.43312 | 5.98664 | 37019 ft | 387 kts | 246° |
| 2026-05-04 18:23 | 43.41236 | 5.91835 | 37011 ft | 387 kts | 246° |
| 2026-05-04 18:24 | 43.39154 | 5.85014 | 37004 ft | 387 kts | 246° |
| 2026-05-04 18:24 | 43.37063 | 5.78185 | 37003 ft | 387 kts | 246° |
| 2026-05-04 18:25 | 43.34969 | 5.71354 | 37004 ft | 388 kts | 246° |
| 2026-05-04 18:25 | 43.32864 | 5.64508 | 37010 ft | 389 kts | 246° |
| 2026-05-04 18:26 | 43.30747 | 5.57648 | 36982 ft | 391 kts | 246° |
| 2026-05-04 18:26 | 43.28627 | 5.50785 | 36987 ft | 390 kts | 245° |
| 2026-05-04 18:27 | 43.26505 | 5.43935 | 36980 ft | 390 kts | 245° |
| 2026-05-04 18:27 | 43.24382 | 5.37098 | 36990 ft | 389 kts | 245° |
| 2026-05-04 18:28 | 43.22255 | 5.30291 | 36991 ft | 387 kts | 245° |
| 2026-05-04 18:28 | 43.19958 | 5.22962 | 36984 ft | 387 kts | 245° |
| 2026-05-04 18:29 | 43.18002 | 5.16744 | 36973 ft | 387 kts | 244° |
| 2026-05-04 18:29 | 43.15856 | 5.09984 | 36976 ft | 387 kts | 245° |
| 2026-05-04 18:30 | 43.12651 | 4.99843 | 36971 ft | 386 kts | 245° |
| 2026-05-04 18:31 | 43.10513 | 4.93111 | 36973 ft | 386 kts | 245° |
| 2026-05-04 18:31 | 43.08369 | 4.86369 | 36960 ft | 387 kts | 245° |
| 2026-05-04 18:32 | 43.06073 | 4.79748 | 36956 ft | 389 kts | 236° |
| 2026-05-04 18:32 | 43.02656 | 4.74054 | 36953 ft | 389 kts | 224° |
| 2026-05-04 18:33 | 42.98584 | 4.69106 | 36941 ft | 391 kts | 223° |
| 2026-05-04 18:33 | 42.94519 | 4.64261 | 36948 ft | 391 kts | 222° |
| 2026-05-04 18:34 | 42.90432 | 4.59378 | 36942 ft | 390 kts | 223° |
| 2026-05-04 18:34 | 42.86362 | 4.54495 | 36947 ft | 390 kts | 223° |
| 2026-05-04 18:35 | 42.82293 | 4.49612 | 36941 ft | 389 kts | 223° |
| 2026-05-04 18:35 | 42.78229 | 4.44739 | 36940 ft | 389 kts | 223° |
| 2026-05-04 18:36 | 42.74163 | 4.39875 | 36934 ft | 388 kts | 223° |
| 2026-05-04 18:36 | 42.70105 | 4.35030 | 36930 ft | 388 kts | 223° |
| 2026-05-04 18:37 | 42.66053 | 4.30196 | 36933 ft | 388 kts | 222° |
| 2026-05-04 18:37 | 42.61996 | 4.25368 | 36927 ft | 388 kts | 222° |
| 2026-05-04 18:38 | 42.57933 | 4.20538 | 36926 ft | 389 kts | 222° |
| 2026-05-04 18:38 | 42.53852 | 4.15696 | 36910 ft | 390 kts | 222° |
| 2026-05-04 18:39 | 42.49763 | 4.10860 | 36919 ft | 390 kts | 222° |
| 2026-05-04 18:39 | 42.45667 | 4.06022 | 36919 ft | 391 kts | 222° |
| 2026-05-04 18:40 | 42.41564 | 4.01182 | 36921 ft | 392 kts | 222° |
| 2026-05-04 18:40 | 42.37454 | 3.96343 | 36913 ft | 392 kts | 222° |
| 2026-05-04 18:41 | 42.33339 | 3.91506 | 36894 ft | 392 kts | 222° |
| 2026-05-04 18:41 | 42.29228 | 3.86683 | 36910 ft | 392 kts | 222° |
| 2026-05-04 18:42 | 42.25297 | 3.81614 | 36906 ft | 390 kts | 231° |
| 2026-05-04 18:42 | 42.22149 | 3.75663 | 36912 ft | 390 kts | 234° |
| 2026-05-04 18:43 | 42.19023 | 3.69676 | 36909 ft | 390 kts | 234° |
| 2026-05-04 18:43 | 42.15883 | 3.63703 | 36912 ft | 390 kts | 234° |
| 2026-05-04 18:44 | 42.12744 | 3.57760 | 36903 ft | 390 kts | 234° |
| 2026-05-04 18:44 | 42.09601 | 3.51830 | 36911 ft | 389 kts | 234° |
| 2026-05-04 18:45 | 42.06457 | 3.45908 | 36912 ft | 388 kts | 234° |
| 2026-05-04 18:45 | 42.03313 | 3.39997 | 36912 ft | 388 kts | 234° |
| 2026-05-04 18:46 | 42.00172 | 3.34100 | 36909 ft | 388 kts | 234° |
| 2026-05-04 18:46 | 41.97033 | 3.28222 | 36916 ft | 387 kts | 234° |
| 2026-05-04 18:47 | 41.93892 | 3.22350 | 36887 ft | 387 kts | 234° |
| 2026-05-04 18:47 | 41.90769 | 3.16524 | 36908 ft | 386 kts | 234° |
| 2026-05-04 18:48 | 41.87628 | 3.10674 | 36917 ft | 386 kts | 234° |
| 2026-05-04 18:48 | 41.84482 | 3.04826 | 36944 ft | 387 kts | 234° |
| 2026-05-04 18:49 | 41.81329 | 2.98977 | 36929 ft | 387 kts | 234° |
| 2026-05-04 18:49 | 41.78147 | 2.93084 | 36916 ft | 387 kts | 234° |
| 2026-05-04 18:50 | 41.75114 | 2.87477 | 36918 ft | 388 kts | 234° |
| 2026-05-04 18:50 | 41.71842 | 2.81439 | 36911 ft | 388 kts | 234° |
| 2026-05-04 18:51 | 41.68669 | 2.75598 | 36922 ft | 388 kts | 234° |
| 2026-05-04 18:51 | 41.65409 | 2.69852 | 36917 ft | 388 kts | 232° |
| 2026-05-04 18:52 | 41.62075 | 2.64179 | 36926 ft | 388 kts | 232° |
| 2026-05-04 18:52 | 41.58745 | 2.58504 | 36926 ft | 388 kts | 232° |
| 2026-05-04 18:53 | 41.55418 | 2.52818 | 36927 ft | 388 kts | 232° |
| 2026-05-04 18:53 | 41.52093 | 2.47135 | 36919 ft | 388 kts | 232° |
| 2026-05-04 18:54 | 41.48771 | 2.41464 | 36932 ft | 388 kts | 232° |
| 2026-05-04 18:54 | 41.45446 | 2.35799 | 36937 ft | 388 kts | 232° |
| 2026-05-04 18:55 | 41.42116 | 2.30137 | 36936 ft | 388 kts | 232° |
| 2026-05-04 18:55 | 41.37105 | 2.21635 | 36946 ft | 390 kts | 232° |
| 2026-05-04 18:56 | 41.33751 | 2.15956 | 36941 ft | 391 kts | 232° |
| 2026-05-04 18:56 | 41.30383 | 2.10297 | 36934 ft | 390 kts | 231° |
| 2026-05-04 18:57 | 41.26794 | 2.04884 | 36943 ft | 391 kts | 229° |
| 2026-05-04 18:57 | 41.23130 | 1.99540 | 36940 ft | 391 kts | 229° |
| 2026-05-04 18:58 | 41.19480 | 1.94180 | 36938 ft | 391 kts | 229° |
| 2026-05-04 18:58 | 41.15843 | 1.88815 | 36945 ft | 391 kts | 229° |
| 2026-05-04 18:59 | 41.12201 | 1.83445 | 36935 ft | 392 kts | 229° |
| 2026-05-04 18:59 | 41.08554 | 1.78076 | 36928 ft | 392 kts | 229° |
| 2026-05-04 19:00 | 41.04901 | 1.72712 | 36926 ft | 392 kts | 229° |
| 2026-05-04 19:00 | 41.01251 | 1.67357 | 36928 ft | 392 kts | 229° |
| 2026-05-04 19:01 | 40.97604 | 1.62011 | 36926 ft | 391 kts | 229° |
| 2026-05-04 19:01 | 40.93953 | 1.56667 | 36927 ft | 391 kts | 229° |
| 2026-05-04 19:02 | 40.90328 | 1.51368 | 36941 ft | 391 kts | 229° |
| 2026-05-04 19:02 | 40.86677 | 1.46044 | 36923 ft | 391 kts | 229° |
| 2026-05-04 19:03 | 40.83021 | 1.40733 | 36927 ft | 391 kts | 229° |
| 2026-05-04 19:03 | 40.79356 | 1.35426 | 36924 ft | 391 kts | 229° |
| 2026-05-04 19:04 | 40.75679 | 1.30105 | 36927 ft | 392 kts | 229° |
| 2026-05-04 19:04 | 40.72000 | 1.24790 | 36927 ft | 393 kts | 229° |
| 2026-05-04 19:05 | 40.68313 | 1.19470 | 36923 ft | 393 kts | 229° |
| 2026-05-04 19:05 | 40.64617 | 1.14138 | 36746 ft | 398 kts | 229° |
| 2026-05-04 19:06 | 40.62747 | 1.11443 | 36387 ft | 396 kts | 229° |
| 2026-05-04 19:06 | 40.60896 | 1.08778 | 35946 ft | 392 kts | 229° |
| 2026-05-04 19:06 | 40.59067 | 1.06146 | 35543 ft | 387 kts | 229° |
| 2026-05-04 19:06 | 40.57260 | 1.03549 | 35127 ft | 384 kts | 229° |
| 2026-05-04 19:07 | 40.56070 | 1.01840 | 34863 ft | 381 kts | 229° |
| 2026-05-04 19:07 | 40.54263 | 0.99249 | 34459 ft | 377 kts | 229° |
| 2026-05-04 19:07 | 40.52517 | 0.96752 | 34075 ft | 374 kts | 229° |
| 2026-05-04 19:07 | 40.50766 | 0.94254 | 33640 ft | 370 kts | 229° |
| 2026-05-04 19:08 | 40.49031 | 0.91779 | 33207 ft | 367 kts | 229° |
| 2026-05-04 19:08 | 40.47312 | 0.89330 | 32796 ft | 363 kts | 229° |
| 2026-05-04 19:08 | 40.45613 | 0.86909 | 32411 ft | 358 kts | 229° |
| 2026-05-04 19:08 | 40.43930 | 0.84513 | 32012 ft | 355 kts | 229° |
| 2026-05-04 19:09 | 40.42268 | 0.82147 | 31625 ft | 351 kts | 229° |
| 2026-05-04 19:09 | 40.40620 | 0.79803 | 31244 ft | 348 kts | 229° |
| 2026-05-04 19:09 | 40.38985 | 0.77480 | 30860 ft | 345 kts | 229° |
| 2026-05-04 19:09 | 40.37366 | 0.75180 | 30526 ft | 342 kts | 229° |
| 2026-05-04 19:10 | 40.35760 | 0.72901 | 30149 ft | 340 kts | 229° |
| 2026-05-04 19:10 | 40.34699 | 0.71396 | 29877 ft | 338 kts | 229° |
| 2026-05-04 19:10 | 40.32575 | 0.68386 | 29302 ft | 334 kts | 229° |
| 2026-05-04 19:10 | 40.31002 | 0.66158 | 28896 ft | 331 kts | 229° |
| 2026-05-04 19:11 | 40.29449 | 0.63959 | 28506 ft | 327 kts | 229° |
| 2026-05-04 19:11 | 40.27910 | 0.61784 | 28109 ft | 324 kts | 229° |
| 2026-05-04 19:11 | 40.26387 | 0.59634 | 27733 ft | 321 kts | 229° |
| 2026-05-04 19:11 | 40.24875 | 0.57501 | 27328 ft | 318 kts | 229° |
| 2026-05-04 19:12 | 40.23379 | 0.55395 | 26991 ft | 314 kts | 229° |
| 2026-05-04 19:12 | 40.20427 | 0.51240 | 26259 ft | 309 kts | 229° |
| 2026-05-04 19:12 | 40.18969 | 0.49190 | 25900 ft | 307 kts | 229° |
| 2026-05-04 19:13 | 40.17520 | 0.47154 | 25539 ft | 305 kts | 229° |
| 2026-05-04 19:13 | 40.16079 | 0.45130 | 25182 ft | 303 kts | 229° |
| 2026-05-04 19:13 | 40.14648 | 0.43121 | 24828 ft | 301 kts | 229° |
| 2026-05-04 19:13 | 40.13223 | 0.41121 | 24474 ft | 300 kts | 229° |
| 2026-05-04 19:14 | 40.11804 | 0.39131 | 24112 ft | 299 kts | 229° |
| 2026-05-04 19:14 | 40.10389 | 0.37148 | 23752 ft | 298 kts | 229° |
| 2026-05-04 19:14 | 40.08974 | 0.35166 | 23341 ft | 298 kts | 229° |
| 2026-05-04 19:14 | 40.07560 | 0.33187 | 22932 ft | 297 kts | 229° |
| 2026-05-04 19:15 | 40.06155 | 0.31221 | 22557 ft | 295 kts | 229° |
| 2026-05-04 19:15 | 40.04759 | 0.29269 | 22197 ft | 293 kts | 229° |
| 2026-05-04 19:15 | 40.03370 | 0.27329 | 21841 ft | 292 kts | 229° |
| 2026-05-04 19:15 | 40.01988 | 0.25401 | 21471 ft | 289 kts | 229° |
| 2026-05-04 19:16 | 40.00619 | 0.23493 | 21137 ft | 287 kts | 229° |
| 2026-05-04 19:16 | 39.99256 | 0.21590 | 20777 ft | 287 kts | 229° |
| 2026-05-04 19:16 | 39.97898 | 0.19693 | 20427 ft | 286 kts | 229° |
| 2026-05-04 19:16 | 39.96545 | 0.17804 | 20083 ft | 285 kts | 229° |
| 2026-05-04 19:17 | 39.95196 | 0.15921 | 19742 ft | 284 kts | 229° |
| 2026-05-04 19:17 | 39.93870 | 0.14071 | 19408 ft | 283 kts | 229° |
| 2026-05-04 19:17 | 39.92530 | 0.12203 | 19076 ft | 282 kts | 229° |
| 2026-05-04 19:17 | 39.91188 | 0.10334 | 18728 ft | 282 kts | 229° |
| 2026-05-04 19:18 | 39.89854 | 0.08474 | 18394 ft | 282 kts | 229° |
| 2026-05-04 19:18 | 39.88511 | 0.06605 | 18025 ft | 283 kts | 229° |
| 2026-05-04 19:18 | 39.87169 | 0.04737 | 17665 ft | 282 kts | 229° |
| 2026-05-04 19:18 | 39.85831 | 0.02879 | 17310 ft | 281 kts | 229° |
| 2026-05-04 19:19 | 39.84501 | 0.01033 | 16968 ft | 279 kts | 229° |
| 2026-05-04 19:19 | 39.83173 | -0.00808 | 16639 ft | 278 kts | 229° |
| 2026-05-04 19:19 | 39.81887 | -0.02685 | 16160 ft | 279 kts | 238° |
| 2026-05-04 19:19 | 39.81131 | -0.05036 | 15568 ft | 285 kts | 253° |
| 2026-05-04 19:20 | 39.80524 | -0.07497 | 15157 ft | 286 kts | 252° |
| 2026-05-04 19:20 | 39.79910 | -0.09947 | 14827 ft | 284 kts | 252° |
| 2026-05-04 19:20 | 39.79294 | -0.12382 | 14486 ft | 283 kts | 252° |
| 2026-05-04 19:20 | 39.78677 | -0.14809 | 14153 ft | 282 kts | 252° |
| 2026-05-04 19:21 | 39.78059 | -0.17230 | 13811 ft | 281 kts | 252° |
| 2026-05-04 19:21 | 39.77442 | -0.19638 | 13469 ft | 280 kts | 252° |
| 2026-05-04 19:21 | 39.76827 | -0.22030 | 13119 ft | 278 kts | 252° |
| 2026-05-04 19:21 | 39.76215 | -0.24411 | 12778 ft | 277 kts | 252° |
| 2026-05-04 19:22 | 39.75608 | -0.26766 | 12463 ft | 274 kts | 252° |
| 2026-05-04 19:22 | 39.75003 | -0.29113 | 12118 ft | 273 kts | 252° |
| 2026-05-04 19:22 | 39.74385 | -0.31503 | 11256 ft | 289 kts | 252° |
| 2026-05-04 19:22 | 39.73728 | -0.34044 | 10525 ft | 300 kts | 252° |
| 2026-05-04 19:23 | 39.73062 | -0.36617 | 10086 ft | 300 kts | 252° |
| 2026-05-04 19:23 | 39.72397 | -0.39177 | 9693 ft | 297 kts | 252° |
| 2026-05-04 19:23 | 39.71739 | -0.41708 | 9287 ft | 295 kts | 252° |
| 2026-05-04 19:23 | 39.71083 | -0.44232 | 8803 ft | 295 kts | 252° |
| 2026-05-04 19:24 | 39.70426 | -0.46758 | 8323 ft | 295 kts | 252° |
| 2026-05-04 19:24 | 39.69761 | -0.49310 | 7874 ft | 295 kts | 252° |
| 2026-05-04 19:24 | 39.69115 | -0.51792 | 7482 ft | 294 kts | 252° |
| 2026-05-04 19:24 | 39.68460 | -0.54300 | 7074 ft | 292 kts | 252° |
| 2026-05-04 19:25 | 39.67815 | -0.56773 | 6539 ft | 288 kts | 253° |
| 2026-05-04 19:25 | 39.67169 | -0.59243 | 5847 ft | 290 kts | 253° |
| 2026-05-04 19:25 | 39.66522 | -0.61720 | 5189 ft | 289 kts | 253° |
| 2026-05-04 19:25 | 39.65876 | -0.64188 | 4563 ft | 289 kts | 253° |
| 2026-05-04 19:26 | 39.65236 | -0.66630 | 4125 ft | 280 kts | 252° |
| 2026-05-04 19:26 | 39.64580 | -0.68956 | 3763 ft | 271 kts | 244° |
| 2026-05-04 19:26 | 39.63392 | -0.70762 | 3491 ft | 262 kts | 215° |
| 2026-05-04 19:26 | 39.61727 | -0.71567 | 3229 ft | 254 kts | 186° |
| 2026-05-04 19:27 | 39.60030 | -0.71199 | 3055 ft | 246 kts | 157° |
| 2026-05-04 19:27 | 39.58548 | -0.70195 | 3019 ft | 236 kts | 152° |
| 2026-05-04 19:27 | 39.57161 | -0.69151 | 2979 ft | 225 kts | 146° |
| 2026-05-04 19:27 | 39.56232 | -0.67655 | 3002 ft | 208 kts | 110° |
| 2026-05-04 19:28 | 39.55711 | -0.65949 | 2836 ft | 201 kts | 121° |
| 2026-05-04 19:28 | 39.55013 | -0.64412 | 2606 ft | 196 kts | 117° |
| 2026-05-04 19:28 | 39.54454 | -0.62840 | 2342 ft | 187 kts | 116° |
| 2026-05-04 19:28 | 39.53914 | -0.61371 | 2109 ft | 176 kts | 117° |
| 2026-05-04 19:29 | 39.53391 | -0.59984 | 1878 ft | 168 kts | 117° |
| 2026-05-04 19:29 | 39.52886 | -0.58650 | 1670 ft | 164 kts | 116° |
| 2026-05-04 19:29 | 39.52389 | -0.57332 | 1462 ft | 158 kts | 116° |
| 2026-05-04 19:29 | 39.51917 | -0.56083 | 1252 ft | 151 kts | 117° |
| 2026-05-04 19:30 | 39.51456 | -0.54866 | 1046 ft | 151 kts | 116° |
| 2026-05-04 19:30 | 39.51000 | -0.53649 | 849 ft | 150 kts | 115° |
| 2026-05-04 19:30 | 39.50545 | -0.52440 | 656 ft | 148 kts | 114° |
| 2026-05-04 19:30 | 39.50096 | -0.51242 | 457 ft | 147 kts | 114° |
| 2026-05-04 19:31 | 39.49649 | -0.50062 | 279 ft | 146 kts | 113° |
| 2026-05-04 19:31 | 39.49225 | -0.48936 | 215 ft | 119 kts | 116° |
| 2026-05-04 19:31 | 39.48951 | -0.48211 | 208 ft | 65 kts | 116° |
| 2026-05-04 19:31 | 39.48766 | -0.47723 | 216 ft | 57 kts | 116° |
| 2026-05-04 19:32 | 39.48652 | -0.47362 | 211 ft | 31 kts | 92° |
| 2026-05-04 19:32 | 39.48749 | -0.47176 | 215 ft | 25 kts | 7° |
| 2026-05-04 19:32 | 39.48870 | -0.47231 | 211 ft | 16 kts | 337° |
| 2026-05-04 19:32 | 39.48935 | -0.47310 | 208 ft | 13 kts | 297° |
| 2026-05-04 19:33 | 39.48969 | -0.47398 | 208 ft | 6 kts | 296° |
| 2026-05-04 19:33 | 39.49002 | -0.47409 | 208 ft | 5 kts | 12° |
| 2026-05-04 19:33 | 39.49037 | -0.47392 | 208 ft | 5 kts | 21° |
| 2026-05-04 19:33 | 39.49047 | -0.47387 | 208 ft | 0 kts | 22° |